Asahi Maru No.25 — JD3598 — position and weather

sailwx.info

Track history (hours):
 
Tides and Currents Weather Stations Pressure Air Temp Water Temp Dewpoint Dewpoint Depression Visibility Wind Speed Wind Dir Waves Ship Positions

Asahi Maru No.25

Last reported at 2017-Oct-17 21:58 UTC. Time now 2017-Oct-17 22:31 UTC.
Position N 35°18' E 139°39'.

Length 73 m; draft 4.8 m.

Type: Tanker. MMSI: 431005058.

Date/timePositionNaut miles runAvg speedWind from/ knotsBaromVisibWave heightAir tempDewpointWater temp
2017-Oct-17 21:58N 35°18' E 139°39'2 5.1
2017-Oct-17 21:30N 35°20' E 139°40'0 0.1
2017-Oct-17 21:00N 35°20' E 139°40'0 0.0
2017-Oct-17 20:30N 35°20' E 139°40'0 0.0
2017-Oct-17 20:00N 35°20' E 139°40'0 0.1
2017-Oct-17 19:30N 35°20' E 139°40'0 0.1
2017-Oct-17 19:00N 35°20' E 139°40'0 0.0
2017-Oct-17 18:30N 35°20' E 139°40'0 0.0
2017-Oct-17 18:00N 35°20' E 139°40'0 0.0
2017-Oct-17 17:30N 35°20' E 139°40'0 0.0
2017-Oct-17 17:00N 35°20' E 139°40'0 0.0
2017-Oct-17 16:30N 35°20' E 139°40'0 0.0
2017-Oct-17 16:00N 35°20' E 139°40'0 0.0
2017-Oct-17 15:30N 35°20' E 139°40'0 0.0
2017-Oct-17 15:00N 35°20' E 139°40'0 0.0
2017-Oct-17 14:30N 35°20' E 139°40'0 0.0
2017-Oct-17 14:00N 35°20' E 139°40'0 0.0
2017-Oct-17 13:30N 35°20' E 139°40'0 0.0
2017-Oct-17 13:00N 35°20' E 139°40'0 0.0
2017-Oct-17 12:30N 35°20' E 139°40'0 0.0
2017-Oct-17 12:00N 35°20' E 139°40'0 0.0
2017-Oct-17 11:30N 35°20' E 139°40'0 0.0
2017-Oct-17 11:00N 35°20' E 139°40'0 0.0
2017-Oct-17 10:30N 35°20' E 139°40'0 0.0
2017-Oct-17 10:00N 35°20' E 139°40'0 0.0
2017-Oct-17 09:30N 35°20' E 139°40'0 0.0
2017-Oct-17 09:00N 35°20' E 139°40'0 0.0
2017-Oct-17 08:30N 35°20' E 139°40'0 0.0
2017-Oct-17 08:00N 35°20' E 139°40'0 0.0
2017-Oct-17 07:30N 35°20' E 139°40'0 0.1
2017-Oct-17 07:00N 35°20' E 139°40'0 0.0
2017-Oct-17 06:30N 35°20' E 139°40'0 0.3
2017-Oct-17 06:01N 35°20' E 139°41'611.4
2017-Oct-17 05:30N 35°25' E 139°44'612.2
2017-Oct-17 05:00N 35°29' E 139°50'810.6
2017-Oct-17 04:13N 35°29' E 140°00'4 0.6
2017-Oct-16 21:24N 35°29' E 139°55'0 0.0
2017-Oct-16 21:00N 35°29' E 139°55'0 0.0
2017-Oct-16 18:00N 35°29' E 139°55'0 0.0
2017-Oct-16 17:30N 35°29' E 139°55'0 0.0
2017-Oct-16 16:57N 35°29' E 139°55'0 0.0
2017-Oct-16 16:25N 35°29' E 139°55'0 0.0
2017-Oct-16 15:54N 35°29' E 139°55'0 0.0
2017-Oct-16 15:30N 35°29' E 139°55'0 0.0
2017-Oct-16 14:48N 35°29' E 139°55'0 0.0
2017-Oct-16 14:24N 35°29' E 139°55'0 0.0
2017-Oct-16 11:46N 35°29' E 139°55'0 0.0
2017-Oct-16 10:32N 35°29' E 139°55'0 0.0
2017-Oct-16 10:17N 35°29' E 139°55'1 2.4
2017-Oct-16 09:53N 35°29' E 139°54'410.5
2017-Oct-16 09:30N 35°30' E 139°49'3 6.8
2017-Oct-16 09:00N 35°30' E 139°45'0 0.0
2017-Oct-16 08:30N 35°30' E 139°45'0 0.0
2017-Oct-16 08:00N 35°30' E 139°45'0 0.0
2017-Oct-16 07:30N 35°30' E 139°45'0 0.0
2017-Oct-16 07:00N 35°30' E 139°45'0 0.0
2017-Oct-16 06:30N 35°30' E 139°45'0 0.0
2017-Oct-16 06:00N 35°30' E 139°45'2 3.2
2017-Oct-16 05:30N 35°30' E 139°47'5 9.6
2017-Oct-16 05:00N 35°26' E 139°47'510.9
2017-Oct-16 04:30N 35°20' E 139°45'510.3
2017-Oct-16 04:00N 35°16' E 139°47'510.8
2017-Oct-16 03:31N 35°10' E 139°46'510.3
2017-Oct-16 03:00N 35°05' E 139°44'510.6
2017-Oct-16 02:30N 35°02' E 139°39'  
2017-Oct-13 09:48N 34°03' E 135°01'412.3
2017-Oct-13 09:30N 34°07' E 135°00'612.0
2017-Oct-13 09:01N 34°12' E 134°59'1910.5
2017-Oct-13 07:10N 34°28' E 135°12'211.8
2017-Oct-13 07:00N 34°29' E 135°15'612.1
2017-Oct-13 06:30N 34°32' E 135°21'5 1.2
2017-Oct-13 02:32N 34°34' E 135°26'0 0.9
2017-Oct-13 02:29N 34°34' E 135°26'3 5.4
2017-Oct-13 02:00N 34°33' E 135°23'5 9.7
2017-Oct-13 01:30N 34°33' E 135°17'612.2
2017-Oct-13 01:00N 34°34' E 135°10'713.6
2017-Oct-13 00:30N 34°36' E 135°02'  
2017-Oct-08 03:19N 34°37' E 135°02'412.3
2017-Oct-08 03:00N 34°35' E 135°07'612.8
2017-Oct-08 02:31N 34°35' E 135°14'612.4
2017-Oct-08 02:00N 34°34' E 135°22'3 1.7
2017-Oct-07 23:57N 34°34' E 135°26'0 0.0
2017-Oct-07 23:29N 34°34' E 135°26'3 7.1
2017-Oct-07 23:00N 34°33' E 135°22'2 4.1
2017-Oct-07 22:30N 34°32' E 135°20'0 0.0
2017-Oct-07 22:01N 34°32' E 135°20'  
Track history (hours):
 
Tides and Currents Weather Stations Pressure Air Temp Water Temp Dewpoint Dewpoint Depression Visibility Wind Speed Wind Dir Waves Ship Positions

Asahi Maru No.25

Last reported at 2017-Oct-17 21:58 UTC. Time now 2017-Oct-17 22:31 UTC.
Position N 35°18' E 139°39'.

Length 73 m; draft 4.8 m.

Type: Tanker. MMSI: 431005058.

Date/timePositionNaut miles runAvg speedWind from/ knotsBaromVisibWave heightAir tempDewpointWater temp
2017-Oct-17 21:58N 35°18' E 139°39'2 5.1
2017-Oct-17 21:30N 35°20' E 139°40'0 0.1
2017-Oct-17 21:00N 35°20' E 139°40'0 0.0
2017-Oct-17 20:30N 35°20' E 139°40'0 0.0
2017-Oct-17 20:00N 35°20' E 139°40'0 0.1
2017-Oct-17 19:30N 35°20' E 139°40'0 0.1
2017-Oct-17 19:00N 35°20' E 139°40'0 0.0
2017-Oct-17 18:30N 35°20' E 139°40'0 0.0
2017-Oct-17 18:00N 35°20' E 139°40'0 0.0
2017-Oct-17 17:30N 35°20' E 139°40'0 0.0
2017-Oct-17 17:00N 35°20' E 139°40'0 0.0
2017-Oct-17 16:30N 35°20' E 139°40'0 0.0
2017-Oct-17 16:00N 35°20' E 139°40'0 0.0
2017-Oct-17 15:30N 35°20' E 139°40'0 0.0
2017-Oct-17 15:00N 35°20' E 139°40'0 0.0
2017-Oct-17 14:30N 35°20' E 139°40'0 0.0
2017-Oct-17 14:00N 35°20' E 139°40'0 0.0
2017-Oct-17 13:30N 35°20' E 139°40'0 0.0
2017-Oct-17 13:00N 35°20' E 139°40'0 0.0
2017-Oct-17 12:30N 35°20' E 139°40'0 0.0
2017-Oct-17 12:00N 35°20' E 139°40'0 0.0
2017-Oct-17 11:30N 35°20' E 139°40'0 0.0
2017-Oct-17 11:00N 35°20' E 139°40'0 0.0
2017-Oct-17 10:30N 35°20' E 139°40'0 0.0
2017-Oct-17 10:00N 35°20' E 139°40'0 0.0
2017-Oct-17 09:30N 35°20' E 139°40'0 0.0
2017-Oct-17 09:00N 35°20' E 139°40'0 0.0
2017-Oct-17 08:30N 35°20' E 139°40'0 0.0
2017-Oct-17 08:00N 35°20' E 139°40'0 0.0
2017-Oct-17 07:30N 35°20' E 139°40'0 0.1
2017-Oct-17 07:00N 35°20' E 139°40'0 0.0
2017-Oct-17 06:30N 35°20' E 139°40'0 0.3
2017-Oct-17 06:01N 35°20' E 139°41'611.4
2017-Oct-17 05:30N 35°25' E 139°44'612.2
2017-Oct-17 05:00N 35°29' E 139°50'810.6
2017-Oct-17 04:13N 35°29' E 140°00'4 0.6
2017-Oct-16 21:24N 35°29' E 139°55'0 0.0
2017-Oct-16 21:00N 35°29' E 139°55'0 0.0
2017-Oct-16 18:00N 35°29' E 139°55'0 0.0
2017-Oct-16 17:30N 35°29' E 139°55'0 0.0
2017-Oct-16 16:57N 35°29' E 139°55'0 0.0
2017-Oct-16 16:25N 35°29' E 139°55'0 0.0
2017-Oct-16 15:54N 35°29' E 139°55'0 0.0
2017-Oct-16 15:30N 35°29' E 139°55'0 0.0
2017-Oct-16 14:48N 35°29' E 139°55'0 0.0
2017-Oct-16 14:24N 35°29' E 139°55'0 0.0
2017-Oct-16 11:46N 35°29' E 139°55'0 0.0
2017-Oct-16 10:32N 35°29' E 139°55'0 0.0
2017-Oct-16 10:17N 35°29' E 139°55'1 2.4
2017-Oct-16 09:53N 35°29' E 139°54'410.5
2017-Oct-16 09:30N 35°30' E 139°49'3 6.8
2017-Oct-16 09:00N 35°30' E 139°45'0 0.0
2017-Oct-16 08:30N 35°30' E 139°45'0 0.0
2017-Oct-16 08:00N 35°30' E 139°45'0 0.0
2017-Oct-16 07:30N 35°30' E 139°45'0 0.0
2017-Oct-16 07:00N 35°30' E 139°45'0 0.0
2017-Oct-16 06:30N 35°30' E 139°45'0 0.0
2017-Oct-16 06:00N 35°30' E 139°45'2 3.2
2017-Oct-16 05:30N 35°30' E 139°47'5 9.6
2017-Oct-16 05:00N 35°26' E 139°47'510.9
2017-Oct-16 04:30N 35°20' E 139°45'510.3
2017-Oct-16 04:00N 35°16' E 139°47'510.8
2017-Oct-16 03:31N 35°10' E 139°46'510.3
2017-Oct-16 03:00N 35°05' E 139°44'510.6
2017-Oct-16 02:30N 35°02' E 139°39'  
2017-Oct-13 09:48N 34°03' E 135°01'412.3
2017-Oct-13 09:30N 34°07' E 135°00'612.0
2017-Oct-13 09:01N 34°12' E 134°59'1910.5
2017-Oct-13 07:10N 34°28' E 135°12'211.8
2017-Oct-13 07:00N 34°29' E 135°15'612.1
2017-Oct-13 06:30N 34°32' E 135°21'5 1.2
2017-Oct-13 02:32N 34°34' E 135°26'0 0.9
2017-Oct-13 02:29N 34°34' E 135°26'3 5.4
2017-Oct-13 02:00N 34°33' E 135°23'5 9.7
2017-Oct-13 01:30N 34°33' E 135°17'612.2
2017-Oct-13 01:00N 34°34' E 135°10'713.6
2017-Oct-13 00:30N 34°36' E 135°02'  
2017-Oct-08 03:19N 34°37' E 135°02'412.3
2017-Oct-08 03:00N 34°35' E 135°07'612.8
2017-Oct-08 02:31N 34°35' E 135°14'612.4
2017-Oct-08 02:00N 34°34' E 135°22'3 1.7
2017-Oct-07 23:57N 34°34' E 135°26'0 0.0
2017-Oct-07 23:29N 34°34' E 135°26'3 7.1
2017-Oct-07 23:00N 34°33' E 135°22'2 4.1
2017-Oct-07 22:30N 34°32' E 135°20'0 0.0
2017-Oct-07 22:01N 34°32' E 135°20'  

Dump ship's entire track history